createdAt,value
2023-01-02T00:02:19.521Z,63.50
2023-01-02T00:04:47.013Z,56.90
2023-01-02T00:07:14.326Z,58.53
2023-01-02T00:09:41.730Z,59.38
2023-01-02T00:12:09.248Z,60.65
2023-01-02T00:14:36.688Z,64.22
2023-01-02T00:17:04.002Z,64.05
2023-01-02T00:19:31.347Z,60.20
2023-01-02T00:21:58.681Z,63.58
2023-01-02T00:24:26.475Z,67.20
2023-01-02T00:26:53.772Z,69.03
2023-01-02T00:29:21.171Z,61.60
2023-01-02T00:31:49.613Z,63.55
2023-01-02T00:34:16.982Z,62.45
2023-01-02T00:36:44.351Z,62.00
2023-01-02T00:39:11.660Z,67.85
2023-01-02T00:41:39.104Z,64.97
2023-01-02T00:44:06.521Z,67.10
2023-01-02T00:46:34.630Z,65.82
2023-01-02T00:49:02.011Z,61.67
2023-01-02T00:51:29.911Z,66.88
2023-01-02T00:53:57.283Z,65.20
2023-01-02T00:56:24.634Z,63.75
2023-01-02T00:58:51.960Z,61.70
2023-01-02T01:01:19.381Z,69.60
2023-01-02T01:03:46.904Z,62.92
2023-01-02T01:06:14.625Z,63.88
2023-01-02T01:08:42.134Z,63.97
2023-01-02T01:11:14.659Z,68.15
2023-01-02T01:13:42.372Z,63.65
2023-01-02T01:16:12.709Z,61.10
2023-01-02T01:18:40.335Z,66.72
2023-01-02T01:21:09.015Z,62.85
2023-01-02T01:23:36.925Z,66.95
2023-01-02T01:26:10.207Z,67.15
2023-01-02T01:28:40.290Z,66.25
2023-01-02T01:31:11.441Z,79.00
2023-01-02T01:33:41.056Z,82.78
2023-01-02T01:36:12.450Z,79.75
2023-01-02T01:38:39.982Z,73.50
2023-01-02T01:41:07.939Z,78.47
2023-01-02T01:43:43.013Z,77.60
2023-01-02T01:46:25.370Z,79.13
2023-01-02T01:49:17.967Z,81.13
2023-01-02T01:52:06.620Z,86.25
2023-01-02T01:54:39.118Z,89.50
2023-01-02T01:57:29.438Z,87.35
2023-01-02T01:59:58.926Z,78.05
2023-01-02T02:02:27.914Z,81.18
2023-01-02T02:04:58.247Z,82.10
2023-01-02T02:07:26.170Z,84.07
2023-01-02T02:10:00.220Z,79.65
2023-01-02T02:12:29.484Z,91.10
2023-01-02T02:14:56.806Z,82.53
2023-01-02T02:18:05.843Z,81.35
2023-01-02T02:20:42.214Z,83.70
2023-01-02T02:23:43.967Z,83.25
2023-01-02T02:26:33.510Z,76.75
2023-01-02T02:29:34.194Z,75.65
2023-01-02T02:32:19.642Z,79.72
2023-01-02T02:35:22.552Z,77.45
2023-01-02T02:38:02.794Z,78.50
2023-01-02T02:40:33.041Z,76.30
2023-01-02T02:43:24.709Z,76.38
2023-01-02T02:46:15.362Z,84.80
2023-01-02T02:48:56.095Z,82.70
2023-01-02T02:51:39.738Z,75.75
2023-01-02T02:54:19.513Z,77.68
2023-01-02T02:56:48.267Z,74.72
2023-01-02T02:59:15.669Z,78.55
2023-01-02T03:01:43.092Z,77.78
2023-01-02T03:04:22.038Z,73.93
2023-01-02T03:07:11.523Z,78.20
2023-01-02T03:09:44.183Z,84.35
2023-01-02T03:12:14.288Z,77.50
2023-01-02T03:15:00.323Z,79.85
2023-01-02T03:17:53.936Z,77.93
2023-01-02T03:20:24.762Z,81.05
2023-01-02T03:22:59.676Z,86.43
2023-01-02T03:25:27.421Z,94.07
2023-01-02T03:28:00.202Z,84.05
2023-01-02T03:30:30.272Z,85.10
2023-01-02T03:33:08.323Z,88.47
2023-01-02T03:35:46.895Z,106.40
2023-01-02T03:38:28.739Z,97.35
2023-01-02T03:41:09.227Z,95.22
2023-01-02T03:43:40.998Z,91.55
2023-01-02T03:46:32.637Z,84.10
2023-01-02T03:49:30.083Z,85.25
2023-01-02T03:51:57.865Z,81.07
2023-01-02T03:54:27.264Z,80.57
2023-01-02T03:57:12.995Z,86.60
2023-01-02T03:59:52.617Z,82.95
2023-01-02T04:02:53.809Z,86.53
2023-01-02T04:05:31.804Z,79.95
2023-01-02T04:08:12.069Z,75.55
2023-01-02T04:10:44.031Z,80.65
2023-01-02T04:15:51.951Z,70.57
2023-01-02T04:18:32.106Z,69.57
2023-01-02T04:21:05.739Z,72.07
2023-01-02T04:23:40.459Z,75.18
2023-01-02T04:26:17.584Z,76.63
2023-01-02T04:28:45.165Z,73.78
2023-01-02T04:31:22.025Z,81.13
2023-01-02T04:33:55.242Z,76.03
2023-01-02T04:36:23.007Z,81.93
2023-01-02T04:38:50.495Z,74.38
2023-01-02T04:41:28.807Z,82.40
2023-01-02T04:43:57.199Z,78.95
2023-01-02T04:46:26.202Z,84.05
2023-01-02T04:48:54.776Z,82.10
2023-01-02T04:51:40.829Z,83.35
2023-01-02T04:54:11.139Z,80.95
2023-01-02T04:56:38.496Z,77.60
2023-01-02T04:59:05.967Z,84.00
2023-01-02T05:01:33.425Z,83.65
2023-01-02T05:04:00.929Z,84.72
2023-01-02T05:06:28.223Z,78.18
2023-01-02T05:08:55.611Z,86.18
2023-01-02T05:11:23.008Z,80.10
2023-01-02T05:13:50.345Z,83.90
2023-01-02T05:16:17.797Z,84.47
2023-01-02T05:18:45.270Z,90.28
2023-01-02T05:21:49.266Z,86.85
2023-01-02T05:24:16.969Z,89.20
2023-01-02T05:26:44.300Z,98.13
2023-01-02T05:29:11.701Z,90.15
2023-01-02T05:31:39.148Z,94.88
2023-01-02T05:34:06.739Z,83.93
2023-01-02T05:36:34.255Z,79.85
2023-01-02T05:39:01.842Z,85.65
2023-01-02T05:41:29.236Z,90.70
2023-01-02T05:43:56.703Z,91.18
2023-01-02T05:46:24.103Z,90.13
2023-01-02T05:48:51.503Z,90.35
2023-01-02T05:51:19.028Z,88.82
2023-01-02T05:53:46.449Z,88.22
2023-01-02T05:56:16.121Z,93.35
2023-01-02T05:58:46.090Z,89.85
2023-01-02T06:01:16.560Z,94.13
2023-01-02T06:03:49.085Z,89.85
2023-01-02T06:06:18.462Z,103.90
2023-01-02T06:08:46.073Z,99.68
2023-01-02T06:11:13.980Z,96.43
2023-01-02T06:13:42.992Z,91.40
2023-01-02T06:16:11.703Z,89.82
2023-01-02T06:18:40.105Z,83.53
2023-01-02T06:21:13.140Z,94.85
2023-01-02T06:23:41.093Z,94.78
2023-01-02T06:26:11.882Z,95.13
2023-01-02T06:28:39.630Z,93.82
2023-01-02T06:31:10.967Z,88.40
2023-01-02T06:33:39.043Z,97.55
2023-01-02T06:36:11.784Z,84.95
2023-01-02T06:38:39.541Z,87.60
2023-01-02T06:41:09.375Z,84.10
2023-01-02T06:43:42.354Z,87.60
2023-01-02T06:46:11.096Z,86.53
2023-01-02T06:48:39.524Z,84.40
2023-01-02T06:51:09.228Z,87.68
2023-01-02T06:53:38.578Z,83.00
2023-01-02T06:56:07.280Z,79.57
2023-01-02T06:58:36.528Z,87.32
2023-01-02T07:01:09.179Z,82.80
2023-01-02T07:03:37.434Z,84.20
2023-01-02T07:06:08.099Z,79.90
2023-01-02T07:08:35.886Z,79.22
2023-01-02T07:11:14.565Z,80.03
2023-01-02T07:13:43.475Z,89.90
2023-01-02T07:16:13.769Z,94.53
2023-01-02T07:18:41.664Z,85.20
2023-01-02T07:21:11.220Z,78.70
2023-01-02T07:23:39.117Z,81.57
2023-01-02T07:26:07.519Z,87.80
2023-01-02T07:28:36.175Z,78.53
2023-01-02T07:31:06.489Z,81.53
2023-01-02T07:33:35.225Z,83.28
2023-01-02T07:36:06.160Z,88.82
2023-01-02T07:38:34.537Z,90.55
2023-01-02T07:41:02.002Z,81.78
2023-01-02T07:43:29.693Z,86.18
2023-01-02T07:46:04.290Z,84.95
2023-01-02T07:48:32.124Z,85.22
2023-01-02T07:51:01.456Z,82.65
2023-01-02T07:53:29.144Z,91.20
2023-01-02T07:55:58.023Z,83.03
2023-01-02T07:58:26.317Z,85.80
2023-01-02T08:00:58.413Z,88.28
2023-01-02T08:03:28.963Z,81.93
2023-01-02T08:06:12.652Z,84.93
2023-01-02T08:08:40.557Z,87.32
2023-01-02T08:11:10.842Z,86.28
2023-01-02T08:13:38.560Z,82.28
2023-01-02T08:16:08.354Z,81.28
2023-01-02T08:18:36.525Z,79.18
2023-01-02T08:21:04.859Z,82.68
2023-01-02T08:23:32.648Z,87.43
2023-01-02T08:26:01.667Z,91.05
2023-01-02T08:28:29.879Z,89.85
2023-01-02T08:30:57.476Z,85.88
2023-01-02T08:33:24.812Z,84.70
2023-01-02T08:35:52.936Z,87.07
2023-01-02T08:38:20.577Z,86.32
2023-01-02T08:40:47.939Z,83.72
2023-01-02T08:43:16.282Z,81.63
2023-01-02T08:45:43.976Z,90.85
2023-01-02T08:48:20.148Z,79.18
2023-01-02T08:50:50.198Z,78.32
2023-01-02T08:53:18.591Z,76.50
2023-01-02T08:55:46.135Z,80.15
2023-01-02T08:58:13.904Z,81.20
2023-01-02T09:00:41.285Z,75.72
2023-01-02T09:03:09.282Z,77.63
2023-01-02T09:05:36.845Z,77.78
2023-01-02T09:08:04.528Z,79.75
2023-01-02T09:10:31.925Z,79.30
2023-01-02T09:12:59.425Z,83.18
2023-01-02T09:15:26.879Z,86.18
2023-01-02T09:17:54.264Z,77.22
2023-01-02T09:20:21.608Z,89.50
2023-01-02T09:22:48.943Z,78.10
2023-01-02T09:25:22.041Z,79.22
2023-01-02T09:27:51.925Z,75.53
2023-01-02T09:30:19.587Z,79.50
2023-01-02T09:32:49.129Z,81.38
2023-01-02T09:35:17.009Z,84.00
2023-01-02T09:37:44.551Z,75.22
2023-01-02T09:40:14.491Z,76.18
2023-01-02T09:42:44.271Z,76.95
2023-01-02T09:45:13.172Z,78.47
2023-01-02T09:47:42.835Z,80.43
2023-01-02T09:50:18.583Z,85.80
2023-01-02T09:52:53.757Z,81.25
2023-01-02T09:55:50.112Z,86.47
2023-01-02T09:58:31.497Z,79.95
2023-01-02T10:00:59.796Z,81.90
2023-01-02T10:03:42.778Z,77.32
2023-01-02T10:06:29.211Z,81.63
2023-01-02T10:09:08.837Z,80.70
2023-01-02T10:11:42.822Z,78.50
2023-01-02T10:14:23.198Z,77.30
2023-01-02T10:16:57.875Z,81.93
2023-01-02T10:19:54.097Z,84.00
2023-01-02T10:22:28.626Z,77.22
2023-01-02T10:25:04.998Z,83.28
2023-01-02T10:27:43.488Z,86.05
2023-01-02T10:30:23.470Z,87.88
2023-01-02T10:33:02.614Z,86.38
2023-01-02T10:35:43.073Z,83.32
2023-01-02T10:38:16.711Z,85.85
2023-01-02T10:40:48.096Z,76.32
2023-01-02T10:43:16.803Z,81.15
2023-01-02T10:45:44.312Z,81.50
2023-01-02T10:48:12.116Z,80.85
2023-01-02T10:50:48.567Z,79.40
2023-01-02T10:53:29.550Z,76.50
2023-01-02T10:56:01.018Z,73.38
2023-01-02T10:58:30.840Z,81.20
2023-01-02T11:01:04.344Z,77.93
2023-01-02T11:03:32.035Z,75.65
2023-01-02T11:06:16.013Z,75.72
2023-01-02T11:09:03.906Z,73.65
2023-01-02T11:11:33.232Z,73.25
2023-01-02T11:14:08.311Z,75.63
2023-01-02T11:16:40.506Z,78.53
2023-01-02T11:19:20.440Z,69.22
2023-01-02T11:24:26.020Z,72.70
2023-01-02T11:26:54.674Z,74.00
2023-01-02T11:29:45.590Z,71.10
2023-01-02T11:32:23.753Z,72.53
2023-01-02T11:35:00.660Z,70.97
2023-01-02T11:37:29.343Z,69.88
2023-01-02T11:40:04.437Z,72.35
2023-01-02T11:43:06.214Z,71.78
2023-01-02T11:45:36.367Z,75.80
2023-01-02T11:48:18.676Z,70.28
2023-01-02T11:53:23.445Z,62.05
2023-01-02T11:56:06.519Z,63.42
2023-01-02T11:58:47.121Z,70.07
2023-01-02T12:01:39.499Z,73.88
2023-01-02T12:04:07.107Z,78.47
2023-01-02T12:07:02.585Z,73.03
2023-01-02T12:09:36.063Z,72.78
2023-01-02T12:12:09.352Z,72.80
2023-01-02T12:15:05.822Z,73.05
2023-01-02T12:17:57.810Z,69.93
2023-01-02T12:20:47.995Z,68.50
2023-01-02T12:23:28.829Z,66.75
2023-01-02T12:26:21.712Z,67.25
2023-01-02T12:29:46.783Z,67.60
2023-01-02T12:32:28.184Z,71.43
2023-01-02T12:34:55.545Z,65.97
2023-01-02T12:37:44.974Z,76.95
2023-01-02T12:40:43.888Z,69.90
2023-01-02T12:43:36.466Z,71.45
2023-01-02T12:46:37.390Z,73.97
2023-01-02T12:49:30.995Z,73.32
2023-01-02T12:52:25.397Z,72.47
2023-01-02T12:55:25.782Z,74.63
2023-01-02T12:58:03.417Z,71.90
2023-01-02T13:00:49.450Z,74.72
2023-01-02T13:03:32.083Z,77.00
2023-01-02T13:06:46.878Z,73.57
2023-01-02T13:09:37.995Z,70.65
2023-01-02T13:12:10.986Z,66.82
2023-01-02T13:14:45.329Z,97.53
2023-01-02T13:17:23.498Z,106.90
2023-01-02T13:20:19.908Z,77.68
2023-01-02T13:23:05.975Z,69.65
2023-01-02T13:25:34.573Z,65.75
2023-01-02T13:28:05.839Z,73.18
2023-01-02T13:30:33.235Z,70.95
2023-01-02T13:33:16.507Z,71.78
2023-01-02T13:35:43.869Z,64.07
2023-01-02T13:38:14.911Z,68.55
2023-01-02T13:40:43.003Z,59.97
2023-01-02T13:43:16.929Z,63.47
2023-01-02T13:45:47.697Z,64.05
2023-01-02T13:48:34.563Z,62.50
2023-01-02T13:51:13.785Z,61.22
2023-01-02T13:53:52.186Z,65.15
2023-01-02T13:56:22.525Z,63.70
2023-01-02T13:58:52.691Z,59.45
2023-01-02T14:01:26.129Z,60.72
2023-01-02T14:04:13.162Z,61.50
2023-01-02T14:06:53.376Z,54.90
2023-01-02T14:09:23.989Z,55.80
2023-01-02T14:11:56.754Z,56.33
2023-01-02T14:14:47.852Z,55.25
2023-01-02T14:17:15.181Z,54.35
2023-01-02T14:19:43.884Z,56.72
2023-01-02T14:22:15.662Z,58.50
2023-01-02T14:24:43.043Z,53.75
2023-01-02T14:27:16.354Z,54.60
2023-01-02T14:29:53.994Z,57.55
2023-01-02T14:32:27.596Z,57.40
2023-01-02T14:34:58.264Z,54.00
2023-01-02T14:37:49.110Z,57.90
2023-01-02T14:40:22.604Z,58.20
2023-01-02T14:43:17.922Z,54.63
2023-01-02T14:46:29.859Z,54.42
2023-01-02T14:49:25.560Z,54.10
2023-01-02T14:52:00.845Z,56.53
2023-01-02T14:54:48.399Z,54.65
2023-01-02T14:57:31.655Z,56.17
2023-01-02T15:00:02.684Z,50.10
2023-01-02T15:02:36.936Z,61.08
2023-01-02T15:05:10.105Z,54.60
2023-01-02T15:07:46.093Z,55.28
2023-01-02T15:10:19.186Z,57.28
2023-01-02T15:13:03.571Z,58.97
2023-01-02T15:15:33.203Z,60.45
2023-01-02T15:18:04.546Z,59.50
2023-01-02T15:20:34.361Z,58.15
2023-01-02T15:23:01.864Z,59.22
2023-01-02T15:25:41.367Z,59.47
2023-01-02T15:28:30.268Z,57.88
2023-01-02T15:31:11.417Z,59.40
2023-01-02T15:33:39.184Z,58.83
2023-01-02T15:36:11.728Z,56.08
2023-01-02T15:38:39.537Z,54.90
2023-01-02T15:41:07.416Z,58.38
2023-01-02T15:43:54.277Z,59.20
2023-01-02T15:46:21.815Z,57.00
2023-01-02T15:48:49.736Z,55.22
2023-01-02T15:51:19.906Z,59.90
2023-01-02T15:54:12.939Z,58.38
2023-01-02T15:56:41.248Z,61.15
2023-01-02T15:59:29.897Z,62.00
2023-01-02T16:01:57.568Z,57.85
2023-01-02T16:04:27.883Z,55.10
2023-01-02T16:06:57.259Z,57.65
2023-01-02T16:09:31.317Z,59.53
2023-01-02T16:12:01.465Z,58.17
2023-01-02T16:14:33.925Z,63.08
2023-01-02T16:17:05.989Z,57.05
2023-01-02T16:22:17.792Z,53.50
2023-01-02T16:25:05.336Z,57.55
2023-01-02T16:27:40.296Z,56.95
2023-01-02T16:30:25.522Z,52.80
2023-01-02T16:32:53.152Z,55.25
2023-01-02T16:35:28.552Z,53.92
2023-01-02T16:37:58.967Z,53.92
2023-01-02T16:41:00.945Z,53.97
2023-01-02T16:43:15.186Z,62.60
2023-01-02T16:45:43.010Z,53.80
2023-01-02T16:48:15.296Z,59.15
2023-01-02T16:50:45.856Z,57.08
2023-01-02T16:53:18.746Z,59.42
2023-01-02T16:55:46.277Z,61.50
2023-01-02T16:58:13.601Z,58.42
2023-01-02T17:00:43.765Z,54.92
2023-01-02T17:03:26.266Z,54.92
2023-01-02T17:06:14.517Z,56.47
2023-01-02T17:08:42.305Z,54.97
2023-01-02T17:11:15.151Z,55.75
2023-01-02T17:13:42.627Z,56.95
2023-01-02T17:16:10.283Z,58.10
2023-01-02T17:18:37.644Z,54.83
2023-01-02T17:21:05.331Z,55.88
2023-01-02T17:23:33.249Z,56.83
2023-01-02T17:26:01.797Z,63.17
2023-01-02T17:28:30.438Z,61.05
2023-01-02T17:30:57.846Z,58.45
2023-01-02T17:33:25.268Z,61.55
2023-01-02T17:35:52.680Z,58.38
2023-01-02T17:38:20.062Z,59.95
2023-01-02T17:40:47.486Z,57.78
2023-01-02T17:43:14.969Z,60.40
2023-01-02T17:45:42.979Z,69.43
2023-01-02T17:48:13.566Z,63.88
2023-01-02T17:50:43.635Z,62.17
2023-01-02T17:53:10.999Z,66.22
2023-01-02T17:55:38.452Z,63.90
2023-01-02T17:58:05.884Z,54.95
2023-01-02T18:00:33.289Z,63.65
2023-01-02T18:03:00.653Z,63.65
2023-01-02T18:05:28.102Z,57.25
2023-01-02T18:07:55.471Z,65.93
2023-01-02T18:10:29.124Z,52.45
2023-01-02T18:13:00.173Z,57.45
2023-01-02T18:15:28.939Z,54.92
2023-01-02T18:17:59.333Z,54.60
2023-01-02T18:20:26.805Z,62.78
2023-01-02T18:22:54.465Z,73.10
2023-01-02T18:25:24.952Z,61.08
2023-01-02T18:27:58.089Z,56.75
2023-01-02T18:30:26.163Z,60.97
2023-01-02T18:33:03.930Z,74.78
2023-01-02T18:38:41.471Z,58.47
2023-01-02T18:41:16.107Z,51.97
2023-01-02T18:43:45.366Z,57.05
2023-01-02T18:46:19.554Z,58.97
2023-01-02T18:48:47.155Z,54.50
2023-01-02T18:51:22.854Z,57.65
2023-01-02T18:53:52.643Z,63.17
2023-01-02T18:56:25.439Z,59.08
2023-01-02T18:59:06.865Z,59.90
2023-01-02T19:01:36.850Z,58.45
2023-01-02T19:04:18.863Z,56.28
2023-01-02T19:06:51.712Z,62.40
2023-01-02T19:09:29.711Z,56.35
2023-01-02T19:12:20.552Z,63.53
2023-01-02T19:14:49.161Z,60.50
2023-01-02T19:17:26.867Z,59.53
2023-01-02T19:19:55.669Z,59.92
2023-01-02T19:22:27.871Z,66.88
2023-01-02T19:24:58.098Z,60.65
2023-01-02T19:27:37.745Z,63.25
2023-01-02T19:30:08.047Z,57.80
2023-01-02T19:32:36.383Z,60.03
2023-01-02T19:35:07.602Z,63.53
2023-01-02T19:37:38.839Z,62.58
2023-01-02T19:40:23.658Z,67.22
2023-01-02T19:42:52.937Z,60.70
2023-01-02T19:45:26.200Z,63.10
2023-01-02T19:47:54.127Z,64.68
2023-01-02T19:50:24.127Z,63.13
2023-01-02T19:52:51.808Z,64.15
2023-01-02T19:55:20.063Z,65.82
2023-01-02T19:57:47.852Z,65.22
2023-01-02T20:00:16.989Z,64.32
2023-01-02T20:02:51.657Z,64.88
2023-01-02T20:05:21.845Z,61.92
2023-01-02T20:07:51.602Z,70.03
2023-01-02T20:10:19.467Z,59.65
2023-01-02T20:12:46.912Z,58.90
2023-01-02T20:15:26.732Z,64.40
2023-01-02T20:17:55.041Z,63.65
2023-01-02T20:20:25.251Z,60.67
2023-01-02T20:22:52.877Z,59.13
2023-01-02T20:25:24.604Z,68.93
2023-01-02T20:27:56.274Z,67.55
2023-01-02T20:30:26.083Z,65.68
2023-01-02T20:32:54.917Z,63.05
2023-01-02T20:35:22.452Z,69.50
2023-01-02T20:37:49.932Z,60.70
2023-01-02T20:40:17.351Z,69.13
2023-01-02T20:42:44.682Z,63.25
2023-01-02T20:45:13.128Z,69.75
2023-01-02T20:47:40.717Z,66.25
2023-01-02T20:50:08.565Z,66.05
2023-01-02T20:52:36.067Z,68.25
2023-01-02T20:55:03.758Z,67.85
2023-01-02T20:57:31.180Z,66.80
2023-01-02T20:59:58.591Z,66.03
2023-01-02T21:02:26.273Z,61.83
2023-01-02T21:04:53.673Z,72.22
2023-01-02T21:07:21.961Z,62.63
2023-01-02T21:09:49.360Z,67.22
2023-01-02T21:12:39.615Z,73.15
2023-01-02T21:15:07.484Z,63.17
2023-01-02T21:17:34.805Z,64.70
2023-01-02T21:20:02.187Z,70.30
2023-01-02T21:22:29.556Z,64.18
2023-01-02T21:24:56.947Z,67.80
2023-01-02T21:27:24.352Z,61.78
2023-01-02T21:29:51.673Z,63.63
2023-01-02T21:32:19.071Z,60.33
2023-01-02T21:34:46.320Z,73.30
2023-01-02T21:37:13.740Z,65.43
2023-01-02T21:39:41.116Z,62.35
2023-01-02T21:42:18.329Z,68.95
2023-01-02T21:44:49.410Z,66.47
2023-01-02T21:47:17.404Z,68.23
2023-01-02T21:49:45.223Z,64.30
2023-01-02T21:52:12.885Z,66.95
2023-01-02T21:54:40.301Z,69.63
2023-01-02T21:57:08.033Z,63.75
2023-01-02T21:59:35.380Z,62.83
2023-01-02T22:02:06.769Z,59.88
2023-01-02T22:04:35.726Z,70.47
2023-01-02T22:07:30.803Z,62.50
2023-01-02T22:09:51.270Z,63.97
2023-01-02T22:12:18.690Z,59.72
2023-01-02T22:14:46.085Z,65.00
2023-01-02T22:17:13.505Z,63.83
2023-01-02T22:19:41.150Z,67.70
2023-01-02T22:22:08.501Z,78.07
2023-01-02T22:24:42.343Z,82.28
2023-01-02T22:27:14.646Z,74.50
2023-01-02T22:30:19.485Z,74.15
2023-01-02T22:32:33.613Z,77.40
2023-01-02T22:35:03.810Z,95.53
2023-01-02T22:37:31.589Z,82.13
2023-01-02T22:40:02.124Z,74.57
2023-01-02T22:43:07.705Z,74.47
2023-01-02T22:45:45.034Z,76.82
2023-01-02T22:48:26.577Z,75.20
2023-01-02T22:50:56.715Z,74.53
2023-01-02T22:53:32.621Z,81.13
2023-01-02T22:56:01.917Z,81.70
2023-01-02T22:58:29.324Z,79.20
2023-01-02T23:01:03.492Z,81.03
2023-01-02T23:03:40.730Z,85.22
2023-01-02T23:06:08.164Z,95.03
2023-01-02T23:08:36.014Z,87.18
2023-01-02T23:11:04.382Z,88.82
2023-01-02T23:13:33.913Z,97.15
2023-01-02T23:16:20.175Z,92.72
2023-01-02T23:19:06.179Z,87.85
2023-01-02T23:21:36.114Z,87.05
2023-01-02T23:24:05.392Z,78.40
2023-01-02T23:26:37.378Z,84.57
2023-01-02T23:31:36.405Z,84.85
2023-01-02T23:34:04.020Z,84.38
2023-01-02T23:36:32.665Z,88.00
2023-01-02T23:39:00.359Z,86.07
2023-01-02T23:41:27.801Z,83.32
2023-01-02T23:43:55.259Z,89.35
2023-01-02T23:46:22.877Z,80.60
2023-01-02T23:48:50.340Z,86.50
2023-01-02T23:51:18.440Z,89.65
2023-01-02T23:53:45.908Z,90.60
2023-01-02T23:56:25.376Z,76.18
2023-01-02T23:58:56.192Z,74.55
